Time;durP1;ratioP1;P1;durP2;ratioP2;P2;SDS_P1;SDS_P2;PMS_P1;PMS_P2;Temp;Humidity;BMP_temperature;BMP_pressure;BME280_temperature;BME280_humidity;BME280_pressure;Samples;Min_cycle;Max_cycle;Signal;HPM_P1;HPM_P2
2023/02/04 00:01:47;;;;;;;27.20;6.18;;;;;;;6.72;93.34;100745.53;5044743;28;20139;-58
2023/02/04 00:04:12;;;;;;;37.50;6.00;;;;;;;6.70;92.23;100738.53;5039789;28;20668;-58
2023/02/04 00:06:38;;;;;;;40.63;6.22;;;;;;;6.69;92.45;100736.06;5041417;28;20025;-59
2023/02/04 00:09:03;;;;;;;28.80;5.88;;;;;;;6.66;92.50;100736.41;5040315;28;20111;-58
2023/02/04 00:11:29;;;;;;;36.15;5.88;;;;;;;6.73;92.03;100733.88;5049205;28;20043;-63
2023/02/04 00:13:54;;;;;;;25.90;5.70;;;;;;;6.62;92.50;100743.94;5045626;28;20021;-59
2023/02/04 00:16:20;;;;;;;39.72;6.10;;;;;;;6.58;93.14;100755.16;5040157;28;20109;-58
2023/02/04 00:18:45;;;;;;;34.85;6.47;;;;;;;6.55;93.37;100743.00;5048562;28;20025;-59
2023/02/04 00:21:11;;;;;;;32.13;5.93;;;;;;;6.49;93.78;100749.06;5042554;28;20451;-59
2023/02/04 00:23:36;;;;;;;43.22;5.88;;;;;;;6.46;94.48;100742.25;5041416;28;20031;-59
2023/02/04 00:26:02;;;;;;;39.95;5.70;;;;;;;6.40;95.24;100747.47;5038861;28;20025;-59
2023/02/04 00:28:27;;;;;;;32.80;5.65;;;;;;;6.28;96.81;100759.53;5045097;28;20040;-59
2023/02/04 00:30:53;;;;;;;31.50;5.32;;;;;;;6.27;96.97;100753.38;5037335;28;20049;-59
2023/02/04 00:33:19;;;;;;;34.42;6.13;;;;;;;6.22;97.57;100764.56;5035652;28;20016;-59
2023/02/04 00:35:44;;;;;;;39.20;5.57;;;;;;;6.20;98.14;100771.88;5038541;28;20022;-59
2023/02/04 00:38:10;;;;;;;38.90;5.05;;;;;;;6.23;98.54;100770.72;5034428;28;20017;-59
2023/02/04 00:40:36;;;;;;;38.40;6.35;;;;;;;6.15;98.39;100768.91;5041859;28;20025;-59
2023/02/04 00:43:01;;;;;;;31.70;4.65;;;;;;;6.10;99.51;100768.63;5042670;28;20550;-59
2023/02/04 00:45:27;;;;;;;28.30;6.20;;;;;;;6.11;99.94;100777.44;5043237;28;20062;-59
2023/02/04 00:47:52;;;;;;;29.80;5.43;;;;;;;6.17;100.00;100779.41;5029940;28;20047;-59
2023/02/04 00:50:18;;;;;;;31.50;5.55;;;;;;;6.07;100.00;100784.94;5074288;28;20086;-59
2023/02/04 00:52:43;;;;;;;44.00;6.07;;;;;;;6.08;100.00;100789.25;5039220;28;20104;-58
2023/02/04 00:55:11;;;;;;;38.47;5.95;;;;;;;5.99;100.00;100779.66;5040587;28;20119;-59
2023/02/04 00:57:36;;;;;;;33.08;5.80;;;;;;;5.98;100.00;100788.66;5038290;28;20475;-59
2023/02/04 01:00:02;;;;;;;46.70;6.35;;;;;;;5.94;100.00;100774.03;5036650;28;20083;-58
2023/02/04 01:02:28;;;;;;;31.92;5.40;;;;;;;5.93;100.00;100773.16;5043660;28;20131;-59
2023/02/04 01:04:53;;;;;;;29.60;5.20;;;;;;;5.81;100.00;100772.72;5034607;28;20162;-59
2023/02/04 01:07:19;;;;;;;30.80;5.70;;;;;;;5.76;100.00;100771.59;5044089;28;20028;-59
2023/02/04 01:09:44;;;;;;;30.13;4.57;;;;;;;5.73;100.00;100790.56;5040257;28;20043;-58
2023/02/04 01:12:10;;;;;;;33.20;5.78;;;;;;;5.77;100.00;100799.88;5044102;28;20507;-59
2023/02/04 01:14:35;;;;;;;27.30;5.15;;;;;;;5.67;100.00;100800.06;5043768;28;20029;-59
2023/02/04 01:17:01;;;;;;;37.47;5.28;;;;;;;5.68;100.00;100815.03;5037439;28;20041;-59
2023/02/04 01:19:26;;;;;;;39.50;5.47;;;;;;;5.59;100.00;100802.75;5044061;28;20020;-60
2023/02/04 01:21:52;;;;;;;27.58;5.47;;;;;;;5.53;100.00;100808.75;5044051;28;20022;-60
2023/02/04 01:24:17;;;;;;;29.23;5.65;;;;;;;5.43;100.00;100816.91;5039694;28;20095;-59
2023/02/04 01:26:43;;;;;;;39.33;5.28;;;;;;;5.48;100.00;100819.06;5034185;28;20032;-58
2023/02/04 01:29:09;;;;;;;34.03;5.13;;;;;;;5.47;100.00;100820.91;5038965;28;20026;-58
2023/02/04 01:31:34;;;;;;;37.05;6.50;;;;;;;5.35;100.00;100828.41;5038465;28;20104;-59
2023/02/04 01:34:02;;;;;;;32.05;6.13;;;;;;;5.37;100.00;100815.78;5045669;28;20034;-60
2023/02/04 01:36:28;;;;;;;32.33;6.70;;;;;;;5.29;100.00;100822.94;5045596;28;20029;-60
2023/02/04 01:38:54;;;;;;;33.40;5.97;;;;;;;5.26;100.00;100828.59;5039216;28;20031;-60
2023/02/04 01:41:19;;;;;;;33.33;6.55;;;;;;;5.21;100.00;100828.25;5042625;28;20029;-58
2023/02/04 01:43:46;;;;;;;35.65;6.63;;;;;;;5.20;100.00;100824.78;5049120;28;20047;-58
2023/02/04 01:46:11;;;;;;;30.83;7.53;;;;;;;5.25;100.00;100826.94;5019678;28;20066;-58
2023/02/04 01:48:37;;;;;;;39.08;7.43;;;;;;;5.29;100.00;100829.09;5038396;28;20037;-59
2023/02/04 01:51:05;;;;;;;44.33;8.93;;;;;;;5.17;100.00;100830.44;5044990;28;20463;-59
2023/02/04 01:53:30;;;;;;;31.02;7.03;;;;;;;5.23;100.00;100835.06;5046193;28;20565;-59
2023/02/04 01:55:56;;;;;;;41.42;7.63;;;;;;;5.19;100.00;100833.75;5037202;28;20038;-60
2023/02/04 01:58:21;;;;;;;36.17;7.50;;;;;;;5.12;100.00;100833.59;5041194;28;20057;-59
2023/02/04 02:00:47;;;;;;;37.25;9.00;;;;;;;5.08;100.00;100840.25;5035515;28;20396;-59
2023/02/04 02:03:12;;;;;;;40.08;9.13;;;;;;;5.03;100.00;100836.44;5049829;28;20033;-59
2023/02/04 02:05:47;;;;;;;49.47;10.02;;;;;;;5.01;100.00;100833.09;5040961;28;20021;-59
2023/02/04 02:08:12;;;;;;;49.60;9.68;;;;;;;4.96;100.00;100839.72;5045409;28;20768;-59
2023/02/04 02:10:39;;;;;;;51.85;11.18;;;;;;;4.91;100.00;100833.25;5027439;28;20017;-59
2023/02/04 02:13:05;;;;;;;57.13;9.35;;;;;;;4.93;100.00;100840.06;5046956;28;20488;-59
2023/02/04 02:15:30;;;;;;;46.45;9.70;;;;;;;4.98;100.00;100837.75;5032191;28;20112;-59
2023/02/04 02:17:56;;;;;;;41.17;9.85;;;;;;;4.94;100.00;100833.78;5036505;28;20021;-59
2023/02/04 02:20:22;;;;;;;45.38;9.50;;;;;;;4.90;100.00;100839.59;5041711;28;20033;-59
2023/02/04 02:22:47;;;;;;;49.80;9.80;;;;;;;4.84;100.00;100845.53;5042491;28;20017;-60
2023/02/04 02:25:13;;;;;;;42.33;9.25;;;;;;;4.85;100.00;100848.06;5040942;28;20023;-60
2023/02/04 02:27:39;;;;;;;49.85;9.52;;;;;;;4.84;100.00;100846.41;5040614;28;20029;-59
2023/02/04 02:30:05;;;;;;;32.25;8.85;;;;;;;4.85;100.00;100860.50;5033814;28;20057;-60
2023/02/04 02:32:30;;;;;;;49.05;9.45;;;;;;;4.88;100.00;100861.00;5044429;28;20163;-60
2023/02/04 02:34:56;;;;;;;52.75;9.63;;;;;;;4.89;100.00;100868.00;5032167;28;20029;-59
2023/02/04 02:37:21;;;;;;;45.60;8.88;;;;;;;4.84;100.00;100870.31;5046816;28;20515;-59
2023/02/04 02:39:47;;;;;;;46.42;9.23;;;;;;;4.81;100.00;100870.63;5036333;28;20105;-60
2023/02/04 02:42:14;;;;;;;46.55;8.63;;;;;;;4.79;100.00;100879.75;5043812;28;20040;-59
2023/02/04 02:44:39;;;;;;;50.65;9.75;;;;;;;4.82;100.00;100874.97;5041457;28;20474;-59
2023/02/04 02:47:05;;;;;;;45.78;9.25;;;;;;;4.80;100.00;100878.78;5046540;28;20030;-59
2023/02/04 02:49:30;;;;;;;41.13;8.82;;;;;;;4.79;100.00;100890.38;5034228;28;20483;-59
2023/02/04 02:51:56;;;;;;;46.00;9.43;;;;;;;4.74;100.00;100886.41;5040082;28;20083;-59
2023/02/04 02:54:28;;;;;;;41.15;9.50;;;;;;;4.80;100.00;100892.88;5020048;28;20029;-59
2023/02/04 02:56:53;;;;;;;50.65;10.32;;;;;;;4.74;100.00;100878.44;5071066;28;20167;-59
2023/02/04 02:59:19;;;;;;;39.60;9.45;;;;;;;4.71;100.00;100885.88;5038719;28;20029;-59
2023/02/04 03:01:46;;;;;;;38.00;10.15;;;;;;;4.78;100.00;100889.56;5041698;28;20025;-59
2023/02/04 03:04:12;;;;;;;38.38;10.23;;;;;;;4.77;100.00;100893.22;5042295;28;20545;-59
2023/02/04 03:06:37;;;;;;;40.03;9.30;;;;;;;4.75;100.00;100884.56;5069596;28;20017;-62
2023/02/04 03:09:03;;;;;;;51.45;10.35;;;;;;;4.74;100.00;100899.69;5039163;28;20061;-59
2023/02/04 03:11:28;;;;;;;37.00;9.45;;;;;;;4.70;100.00;100893.03;5043176;28;20028;-59
2023/02/04 03:13:55;;;;;;;40.10;9.45;;;;;;;4.67;100.00;100893.34;5043254;28;20075;-59
2023/02/04 03:16:20;;;;;;;31.13;8.73;;;;;;;4.70;100.00;100892.19;5046872;28;20777;-59
2023/02/04 03:18:46;;;;;;;36.50;8.15;;;;;;;4.67;100.00;100895.19;5037812;28;20032;-59
2023/02/04 03:21:11;;;;;;;35.53;8.27;;;;;;;4.67;100.00;100896.00;5043827;28;20059;-60
2023/02/04 03:23:37;;;;;;;34.90;9.27;;;;;;;4.64;100.00;100896.34;5043429;28;20170;-60
2023/02/04 03:26:03;;;;;;;43.72;8.60;;;;;;;4.67;100.00;100903.16;5042498;28;20041;-60
2023/02/04 03:28:30;;;;;;;39.67;8.48;;;;;;;4.67;100.00;100897.84;5015030;28;20367;-59
2023/02/04 03:30:55;;;;;;;50.25;9.90;;;;;;;4.66;100.00;100904.13;5044223;28;20025;-60
2023/02/04 03:33:22;;;;;;;37.95;9.57;;;;;;;4.64;100.00;100904.31;5043119;28;20500;-59
2023/02/04 03:35:48;;;;;;;47.72;10.70;;;;;;;4.64;100.00;100916.75;5043242;28;20021;-60
2023/02/04 03:38:13;;;;;;;40.75;9.93;;;;;;;4.61;100.00;100904.63;5040339;28;20084;-60
2023/02/04 03:40:39;;;;;;;42.33;9.27;;;;;;;4.64;100.00;100903.47;5043911;28;20654;-60
2023/02/04 03:43:04;;;;;;;38.03;9.98;;;;;;;4.66;100.00;100909.44;5038247;28;20369;-59
2023/02/04 03:45:29;;;;;;;37.83;10.52;;;;;;;4.60;100.00;100915.41;5040977;28;20020;-59
2023/02/04 03:47:55;;;;;;;40.30;11.15;;;;;;;4.59;100.00;100916.41;5035416;28;20036;-59
2023/02/04 03:50:20;;;;;;;39.40;10.38;;;;;;;4.57;100.00;100907.75;5036001;28;20429;-59
2023/02/04 03:52:47;;;;;;;49.90;11.60;;;;;;;4.52;100.00;100921.53;5044244;28;20032;-59
2023/02/04 03:55:13;;;;;;;42.38;10.60;;;;;;;4.58;100.00;100915.56;5053292;28;20056;-60
2023/02/04 03:57:38;;;;;;;55.10;12.50;;;;;;;4.59;100.00;100916.41;5042194;28;20431;-60
2023/02/04 04:00:04;;;;;;;49.00;11.55;;;;;;;4.58;100.00;100907.59;5037457;28;20025;-60
2023/02/04 04:02:29;;;;;;;40.95;11.20;;;;;;;4.54;100.00;100907.13;5042432;28;20688;-59
2023/02/04 04:04:55;;;;;;;44.05;10.65;;;;;;;4.59;100.00;100914.56;5043184;28;20130;-59
2023/02/04 04:07:20;;;;;;;50.47;10.48;;;;;;;4.55;100.00;100910.59;5038420;28;20056;-60
2023/02/04 04:09:46;;;;;;;53.13;10.65;;;;;;;4.54;100.00;100908.91;5036526;28;20460;-59
2023/02/04 04:12:11;;;;;;;61.65;11.15;;;;;;;4.58;100.00;100904.13;5044791;28;20344;-59
2023/02/04 04:14:36;;;;;;;51.50;12.27;;;;;;;4.64;100.00;100908.78;5048526;28;20033;-59
2023/02/04 04:17:02;;;;;;;65.75;11.43;;;;;;;4.67;100.00;100911.13;5037171;28;20479;-59
2023/02/04 04:19:27;;;;;;;48.90;12.13;;;;;;;4.67;100.00;100913.78;5046706;28;20032;-59
2023/02/04 04:21:53;;;;;;;41.95;10.35;;;;;;;4.64;100.00;100914.09;5042387;28;20017;-59
2023/02/04 04:24:18;;;;;;;59.10;11.05;;;;;;;4.65;100.00;100915.75;5046425;28;20029;-59
2023/02/04 04:26:44;;;;;;;77.15;12.95;;;;;;;4.67;100.00;100924.41;5038744;28;20038;-60
2023/02/04 04:29:09;;;;;;;53.55;10.50;;;;;;;4.73;100.00;100929.06;5038991;28;20369;-59
2023/02/04 04:31:34;;;;;;;49.47;11.23;;;;;;;4.67;100.00;100929.72;5038696;28;20026;-59
2023/02/04 04:34:00;;;;;;;40.33;12.18;;;;;;;4.70;100.00;100929.38;5041668;28;20029;-59
2023/02/04 04:36:26;;;;;;;63.88;12.95;;;;;;;4.70;100.00;100932.88;5055206;28;20028;-59
2023/02/04 04:38:51;;;;;;;63.58;12.68;;;;;;;4.66;100.00;100928.03;5041573;28;20047;-59
2023/02/04 04:41:17;;;;;;;70.95;12.55;;;;;;;4.76;100.00;100939.34;5044265;28;20029;-59
2023/02/04 04:43:42;;;;;;;47.90;10.80;;;;;;;4.70;100.00;100927.56;5042176;28;20459;-59
2023/02/04 04:46:08;;;;;;;47.58;11.88;;;;;;;4.77;100.00;100938.38;5035148;28;20032;-59
2023/02/04 04:48:33;;;;;;;58.47;10.88;;;;;;;4.76;100.00;100929.53;5041893;28;20029;-59
2023/02/04 04:50:58;;;;;;;68.25;11.55;;;;;;;4.78;100.00;100926.75;5044819;28;20043;-60
2023/02/04 04:53:24;;;;;;;65.35;10.52;;;;;;;4.80;100.00;100926.59;5045049;28;20074;-59
2023/02/04 04:55:49;;;;;;;52.30;10.10;;;;;;;4.83;100.00;100935.06;5040432;28;20114;-59
2023/02/04 04:58:15;;;;;;;46.67;10.13;;;;;;;4.80;100.00;100927.41;5040832;28;20032;-59
2023/02/04 05:00:40;;;;;;;43.55;9.82;;;;;;;4.76;100.00;100929.53;5039028;28;20032;-59
2023/02/04 05:03:06;;;;;;;55.97;12.18;;;;;;;4.71;100.00;100931.88;5040734;28;20034;-59
2023/02/04 05:05:32;;;;;;;53.70;10.57;;;;;;;4.71;100.00;100931.88;5039314;28;20223;-59
2023/02/04 05:07:58;;;;;;;48.15;10.32;;;;;;;4.69;100.00;100930.38;5035935;28;20033;-59
2023/02/04 05:10:23;;;;;;;52.45;10.02;;;;;;;4.64;100.00;100930.03;5050090;28;20025;-59
2023/02/04 05:12:49;;;;;;;56.88;10.80;;;;;;;4.63;100.00;100936.34;5041964;28;20033;-59
2023/02/04 05:15:14;;;;;;;50.38;9.45;;;;;;;4.70;100.00;100940.00;5043892;28;20040;-59
2023/02/04 05:17:40;;;;;;;58.53;10.38;;;;;;;4.64;100.00;100936.19;5039822;28;20032;-59
2023/02/04 05:20:06;;;;;;;51.63;10.75;;;;;;;4.68;100.00;100942.00;5043830;28;20029;-59
2023/02/04 05:22:31;;;;;;;58.20;9.75;;;;;;;4.73;100.00;100950.31;5046962;28;20108;-59
2023/02/04 05:24:56;;;;;;;47.95;8.93;;;;;;;4.65;100.00;100952.94;5042402;28;20036;-60
2023/02/04 05:27:22;;;;;;;61.35;9.75;;;;;;;4.71;100.00;100958.44;5044830;28;20663;-59
2023/02/04 05:29:47;;;;;;;65.95;10.02;;;;;;;4.67;100.00;100958.94;5049848;28;20028;-60
2023/02/04 05:32:13;;;;;;;57.53;11.48;;;;;;;4.66;100.00;100960.72;5054396;28;20086;-59
2023/02/04 05:34:38;;;;;;;54.67;9.73;;;;;;;4.63;100.00;100965.56;5040922;28;20030;-59
2023/02/04 05:37:04;;;;;;;70.18;10.90;;;;;;;4.70;100.00;100961.25;5046673;28;20052;-59
2023/02/04 05:39:29;;;;;;;54.80;9.32;;;;;;;4.61;100.00;100951.59;5046297;28;20355;-59
2023/02/04 05:41:54;;;;;;;55.42;9.27;;;;;;;4.64;100.00;100956.56;5047709;28;20392;-60
2023/02/04 05:44:20;;;;;;;50.47;9.45;;;;;;;4.62;100.00;100943.47;5049455;28;20017;-59
2023/02/04 05:46:45;;;;;;;61.50;8.77;;;;;;;4.63;100.00;100950.44;5050282;28;20029;-59
2023/02/04 05:49:11;;;;;;;49.85;8.57;;;;;;;4.63;100.00;100960.25;5046782;28;20094;-59
2023/02/04 05:51:37;;;;;;;53.67;9.88;;;;;;;4.66;100.00;100965.22;5048151;28;20029;-59
2023/02/04 05:54:02;;;;;;;71.50;10.25;;;;;;;4.69;100.00;100962.25;5045216;28;20424;-59
2023/02/04 05:56:27;;;;;;;64.10;9.32;;;;;;;4.66;100.00;100960.72;5040726;28;20056;-59
2023/02/04 05:58:53;;;;;;;62.80;9.30;;;;;;;4.70;100.00;100962.09;5040422;28;20028;-59
2023/02/04 06:01:18;;;;;;;61.40;9.32;;;;;;;4.70;100.00;100966.56;5044366;28;20024;-59
2023/02/04 06:03:44;;;;;;;55.08;10.27;;;;;;;4.65;100.00;100968.88;5045862;28;20066;-59
2023/02/04 06:06:09;;;;;;;72.68;10.10;;;;;;;4.62;100.00;100970.03;5045311;28;20025;-59
2023/02/04 06:08:35;;;;;;;56.45;10.25;;;;;;;4.65;100.00;100980.34;5036052;28;20075;-60
2023/02/04 06:11:00;;;;;;;62.92;10.40;;;;;;;4.63;100.00;100981.50;5044989;28;20087;-59
2023/02/04 06:13:25;;;;;;;75.07;10.85;;;;;;;4.66;100.00;100984.63;5046705;28;20069;-59
2023/02/04 06:15:51;;;;;;;69.72;11.35;;;;;;;4.59;100.00;100996.91;5072632;28;20043;-59
2023/02/04 06:18:16;;;;;;;59.38;10.20;;;;;;;4.64;100.00;101009.69;5044505;28;20052;-59
2023/02/04 06:20:42;;;;;;;58.35;11.15;;;;;;;4.71;100.00;101000.09;5042650;28;20051;-59
2023/02/04 06:23:07;;;;;;;56.35;10.60;;;;;;;4.69;100.00;101002.94;5044061;28;20392;-59
2023/02/04 06:25:32;;;;;;;57.22;10.43;;;;;;;4.69;100.00;101010.03;5045052;28;20036;-59
2023/02/04 06:27:58;;;;;;;71.00;11.93;;;;;;;4.63;100.00;101010.69;5039373;28;20476;-59
2023/02/04 06:30:23;;;;;;;60.40;14.20;;;;;;;4.64;100.00;101015.88;5044006;28;20030;-59
2023/02/04 06:32:49;;;;;;;61.25;11.60;;;;;;;4.63;100.00;101021.31;5045608;28;20029;-59
2023/02/04 06:35:15;;;;;;;103.13;18.35;;;;;;;4.62;100.00;101014.34;5043860;28;20402;-59
2023/02/04 06:37:41;;;;;;;86.22;19.55;;;;;;;4.61;100.00;101015.34;5043131;28;20471;-59
2023/02/04 06:40:07;;;;;;;90.80;22.20;;;;;;;4.64;100.00;101020.31;5049794;28;20037;-59
2023/02/04 06:42:33;;;;;;;68.85;15.20;;;;;;;4.61;100.00;101023.31;5045588;28;20353;-59
2023/02/04 06:44:58;;;;;;;69.28;15.48;;;;;;;4.60;100.00;101025.13;5046511;28;20079;-59
2023/02/04 06:47:24;;;;;;;75.72;16.40;;;;;;;4.62;100.00;101025.81;5038110;28;20054;-59
2023/02/04 06:49:49;;;;;;;67.63;17.65;;;;;;;4.62;100.00;101039.09;5045077;28;20044;-59
2023/02/04 06:52:14;;;;;;;86.90;15.70;;;;;;;4.69;100.00;101033.97;5050471;28;20467;-59
2023/02/04 06:54:40;;;;;;;87.85;18.50;;;;;;;4.59;100.00;101039.38;5036531;28;20467;-59
2023/02/04 06:57:05;;;;;;;81.85;18.38;;;;;;;4.70;100.00;101047.09;5070474;28;20018;-59
2023/02/04 06:59:34;;;;;;;80.68;19.10;;;;;;;4.60;100.00;101056.19;5041707;28;20086;-59
2023/02/04 07:02:00;;;;;;;75.28;17.55;;;;;;;4.62;100.00;101055.03;5035464;28;20108;-59
2023/02/04 07:04:25;;;;;;;87.93;19.27;;;;;;;4.62;100.00;101046.19;5048269;28;20059;-59
2023/02/04 07:06:51;;;;;;;79.75;17.90;;;;;;;4.53;100.00;101062.09;5039008;28;20025;-59
2023/02/04 07:09:16;;;;;;;89.57;20.02;;;;;;;4.56;100.00;101060.97;5041290;28;20448;-59
2023/02/04 07:11:41;;;;;;;83.82;20.77;;;;;;;4.53;100.00;101062.09;5048688;28;20029;-59
2023/02/04 07:14:09;;;;;;;85.13;19.42;;;;;;;4.59;100.00;101065.94;5040175;28;20024;-59
2023/02/04 07:16:34;;;;;;;89.28;18.48;;;;;;;4.52;100.00;101065.75;5042318;28;20113;-59
2023/02/04 07:18:59;;;;;;;114.97;21.65;;;;;;;4.62;100.00;101070.09;5036244;28;20033;-59
2023/02/04 07:21:26;;;;;;;98.40;19.20;;;;;;;4.61;100.00;101081.72;5048807;28;20032;-59
2023/02/04 07:23:51;;;;;;;106.55;19.42;;;;;;;4.59;100.00;101075.75;5034177;28;20335;-59
2023/02/04 07:26:17;;;;;;;88.95;20.45;;;;;;;4.54;100.00;101082.38;5040262;28;20032;-60
2023/02/04 07:28:43;;;;;;;103.80;19.88;;;;;;;4.56;100.00;101081.38;5046175;28;20043;-62
2023/02/04 07:31:09;;;;;;;82.57;21.95;;;;;;;4.61;100.00;101084.38;5039685;28;20032;-60
2023/02/04 07:33:34;;;;;;;105.97;22.58;;;;;;;4.64;100.00;101090.22;5044893;28;20025;-60
2023/02/04 07:35:59;;;;;;;86.55;19.50;;;;;;;4.63;100.00;101093.03;5044178;28;20024;-60
2023/02/04 07:38:25;;;;;;;94.57;20.05;;;;;;;4.68;100.00;101101.38;5044115;28;20031;-60
2023/02/04 07:40:50;;;;;;;108.93;19.25;;;;;;;4.64;100.00;101092.03;5046034;28;20025;-60
2023/02/04 07:43:16;;;;;;;102.05;24.88;;;;;;;4.59;100.00;101097.00;5042521;28;20472;-59
2023/02/04 07:45:41;;;;;;;101.93;20.15;;;;;;;4.66;100.00;101095.38;5049529;28;20031;-60
2023/02/04 07:48:07;;;;;;;85.18;19.33;;;;;;;4.75;100.00;101105.06;5038570;28;20025;-59
2023/02/04 07:50:32;;;;;;;108.38;22.65;;;;;;;4.76;100.00;101104.88;5040824;28;20024;-59
2023/02/04 07:52:58;;;;;;;95.97;20.30;;;;;;;4.80;100.00;101116.03;5045776;28;20100;-60
2023/02/04 07:55:23;;;;;;;91.75;21.65;;;;;;;4.76;100.00;101109.38;5036672;28;20796;-60
2023/02/04 07:57:49;;;;;;;93.40;19.85;;;;;;;4.88;100.00;101107.28;5040612;28;20022;-60
2023/02/04 08:00:15;;;;;;;89.60;19.85;;;;;;;4.86;100.00;101114.56;5047977;28;20474;-59
2023/02/04 08:02:40;;;;;;;99.72;21.92;;;;;;;5.08;100.00;101118.47;5044680;28;20021;-60
2023/02/04 08:05:06;;;;;;;92.70;20.92;;;;;;;5.09;100.00;101120.13;5041097;28;20076;-60
2023/02/04 08:07:32;;;;;;;93.00;24.60;;;;;;;5.14;100.00;101120.47;5034769;28;20021;-60
2023/02/04 08:09:57;;;;;;;88.68;20.65;;;;;;;5.07;100.00;101119.50;5037696;28;20056;-60
2023/02/04 08:12:23;;;;;;;107.30;21.10;;;;;;;5.05;100.00;101124.94;5042972;28;20036;-60
2023/02/04 08:14:48;;;;;;;111.53;21.77;;;;;;;5.11;100.00;101121.63;5035051;28;20365;-60
2023/02/04 08:17:13;;;;;;;118.82;24.98;;;;;;;5.26;100.00;101131.66;5038436;28;20767;-60
2023/02/04 08:19:39;;;;;;;107.45;21.38;;;;;;;5.23;100.00;101130.16;5042811;28;20087;-59
2023/02/04 08:22:04;;;;;;;115.57;24.80;;;;;;;5.39;100.00;101138.22;5036294;28;20965;-61
2023/02/04 08:24:30;;;;;;;98.05;21.40;;;;;;;5.40;100.00;101134.53;5032469;28;20041;-60
2023/02/04 08:26:57;;;;;;;77.45;23.27;;;;;;;5.37;100.00;101140.19;5034436;28;20464;-61
2023/02/04 08:29:24;;;;;;;115.57;23.15;;;;;;;5.44;100.00;101137.69;5042250;28;20029;-60
2023/02/04 08:31:50;;;;;;;89.38;20.02;;;;;;;5.56;100.00;101146.22;5045411;28;20391;-60
2023/02/04 08:34:15;;;;;;;77.57;21.55;;;;;;;5.63;100.00;101144.56;5037720;28;20033;-60
2023/02/04 08:36:40;;;;;;;108.65;23.17;;;;;;;5.52;100.00;101148.38;5037118;28;20035;-60
2023/02/04 08:39:06;;;;;;;78.28;20.65;;;;;;;5.69;100.00;101154.56;5035467;28;20040;-59
2023/02/04 08:41:32;;;;;;;94.15;22.27;;;;;;;5.68;100.00;101152.06;5040241;28;20477;-59
2023/02/04 08:43:57;;;;;;;84.13;20.50;;;;;;;5.75;100.00;101159.22;5041146;28;20327;-59
2023/02/04 08:46:23;;;;;;;93.85;21.75;;;;;;;5.79;100.00;101171.22;5040754;28;20104;-59
2023/02/04 08:48:48;;;;;;;105.80;22.90;;;;;;;5.87;100.00;101164.25;5033096;28;20490;-59
2023/02/04 08:51:14;;;;;;;91.78;22.02;;;;;;;6.08;100.00;101161.94;5071926;28;20025;-59
2023/02/04 08:53:39;;;;;;;73.38;19.27;;;;;;;6.05;100.00;101159.63;5036249;28;20033;-61
2023/02/04 08:56:06;;;;;;;75.13;17.85;;;;;;;6.19;100.00;101161.63;5045746;28;20021;-60
2023/02/04 08:58:32;;;;;;;98.97;22.33;;;;;;;6.42;100.00;101163.63;5039563;28;20181;-59
2023/02/04 09:00:57;;;;;;;96.65;21.45;;;;;;;6.35;100.00;101157.31;5042770;28;20052;-60
2023/02/04 09:03:23;;;;;;;73.85;20.13;;;;;;;6.31;100.00;101164.78;5042635;28;20054;-61
2023/02/04 09:05:48;;;;;;;84.00;19.95;;;;;;;6.16;100.00;101169.09;5049649;28;20029;-60
2023/02/04 09:08:14;;;;;;;81.78;20.70;;;;;;;6.02;100.00;101175.94;5040464;28;20041;-60
2023/02/04 09:10:40;;;;;;;96.22;23.27;;;;;;;5.86;100.00;101181.19;5040290;28;20025;-60
2023/02/04 09:13:07;;;;;;;89.70;20.98;;;;;;;5.81;100.00;101177.19;5039387;28;20408;-60
2023/02/04 09:15:33;;;;;;;87.53;20.40;;;;;;;5.92;100.00;101172.56;5045024;28;20028;-59
2023/02/04 09:18:10;;;;;;;92.65;21.42;;;;;;;6.02;100.00;101175.94;5040712;28;20032;-60
2023/02/04 09:20:36;;;;;;;95.93;21.20;;;;;;;5.88;100.00;101189.84;5042804;28;20030;-60
2023/02/04 09:23:01;;;;;;;108.72;21.45;;;;;;;5.86;100.00;101184.69;5039714;28;20025;-60
2023/02/04 09:25:27;;;;;;;106.40;21.23;;;;;;;6.00;100.00;101183.25;5041616;28;20353;-60
2023/02/04 09:27:52;;;;;;;94.80;21.55;;;;;;;6.09;100.00;101184.94;5035943;28;20064;-60
2023/02/04 09:30:18;;;;;;;87.78;20.02;;;;;;;6.15;100.00;101189.59;5023357;28;20585;-60
2023/02/04 09:32:43;;;;;;;100.85;22.92;;;;;;;6.00;100.00;101192.06;5038386;28;20036;-61
2023/02/04 09:35:09;;;;;;;98.50;20.42;;;;;;;6.19;100.00;101193.59;5041450;28;20044;-60
2023/02/04 09:37:34;;;;;;;94.63;21.60;;;;;;;6.13;100.00;101206.72;5034080;28;20514;-60
2023/02/04 09:39:59;;;;;;;94.50;19.73;;;;;;;6.36;100.00;101204.22;5038023;28;20033;-58
2023/02/04 09:42:28;;;;;;;86.47;19.83;;;;;;;6.60;100.00;101206.88;5029703;28;20029;-59
2023/02/04 09:44:53;;;;;;;90.05;21.58;;;;;;;6.76;100.00;101207.84;5034179;28;20441;-59
2023/02/04 09:47:20;;;;;;;87.78;20.60;;;;;;;6.58;100.00;101216.88;5033731;28;20032;-59
2023/02/04 09:49:46;;;;;;;72.50;19.88;;;;;;;6.63;100.00;101217.19;5042170;28;20120;-59
2023/02/04 09:52:12;;;;;;;85.28;18.92;;;;;;;6.64;100.00;101218.03;5024664;28;20368;-59
2023/02/04 09:54:38;;;;;;;92.30;19.10;;;;;;;6.70;99.18;101226.19;5022713;28;20472;-59
2023/02/04 09:57:12;;;;;;;102.43;19.67;;;;;;;6.82;100.00;101231.19;5041462;28;20028;-59
2023/02/04 09:59:38;;;;;;;86.82;19.58;;;;;;;6.61;97.79;101229.84;5024195;28;20028;-58
2023/02/04 10:02:04;;;;;;;97.97;20.25;;;;;;;6.62;100.00;101236.88;5080782;28;20839;-59
2023/02/04 10:04:29;;;;;;;99.60;18.75;;;;;;;6.63;97.93;101243.03;5063113;28;20032;-59
2023/02/04 10:06:57;;;;;;;80.75;18.65;;;;;;;6.57;98.39;101244.53;5043748;28;20029;-59
2023/02/04 10:09:22;;;;;;;92.78;19.30;;;;;;;6.72;98.74;101249.19;5052306;28;20483;-59
2023/02/04 10:11:48;;;;;;;86.60;20.00;;;;;;;6.80;97.12;101243.84;5042068;28;20025;-61
2023/02/04 10:14:15;;;;;;;78.03;19.73;;;;;;;7.05;96.94;101242.78;5043238;28;20048;-60
2023/02/04 10:16:42;;;;;;;79.68;20.48;;;;;;;7.11;94.61;101242.13;5039639;28;20037;-60
2023/02/04 10:19:14;;;;;;;85.35;18.58;;;;;;;7.61;94.15;101239.28;5071101;28;20029;-58
2023/02/04 10:21:40;;;;;;;90.68;19.10;;;;;;;7.72;92.16;101244.25;5047069;28;20120;-61
2023/02/04 10:24:11;;;;;;;67.25;19.02;;;;;;;7.47;93.34;101241.69;5039589;28;20037;-61
2023/02/04 10:26:38;;;;;;;78.40;19.08;;;;;;;7.37;94.09;101241.03;5041775;28;20039;-58
2023/02/04 10:29:05;;;;;;;77.60;18.92;;;;;;;7.44;94.66;101236.69;5042559;28;20090;-58
2023/02/04 10:31:36;;;;;;;91.63;18.30;;;;;;;7.56;93.93;101250.47;5043955;28;20059;-58
2023/02/04 10:34:21;;;;;;;75.93;18.02;;;;;;;7.72;92.94;101244.25;5043495;28;20079;-58
2023/02/04 10:36:48;;;;;;;81.20;18.10;;;;;;;7.71;92.33;101250.56;5047061;28;20091;-63
2023/02/04 10:39:14;;;;;;;113.13;19.35;;;;;;;7.79;92.64;101247.88;5059431;28;20476;-59
2023/02/04 10:41:44;;;;;;;65.80;17.17;;;;;;;8.03;89.56;101244.22;5039505;28;20424;-58
2023/02/04 10:44:11;;;;;;;85.50;17.35;;;;;;;7.75;90.34;101249.22;5037651;28;20197;-58
2023/02/04 10:46:36;;;;;;;82.90;17.35;;;;;;;7.99;90.18;101245.59;5032852;28;20025;-58
2023/02/04 10:49:25;;;;;;;61.28;16.70;;;;;;;8.20;89.35;101240.44;5036221;28;20340;-58
2023/02/04 10:51:51;;;;;;;67.35;17.63;;;;;;;8.12;87.38;101235.16;5042943;28;20048;-58
2023/02/04 10:54:31;;;;;;;87.57;18.58;;;;;;;8.21;88.18;101241.25;5047315;28;20079;-57
2023/02/04 10:56:58;;;;;;;85.72;17.17;;;;;;;8.68;87.02;101237.56;5045341;28;20025;-58
2023/02/04 10:59:25;;;;;;;67.22;15.05;;;;;;;8.40;86.59;101232.81;5033611;28;20582;-58
2023/02/04 11:01:51;;;;;;;61.40;16.67;;;;;;;8.20;87.40;101239.59;5022343;28;20443;-58
2023/02/04 11:04:16;;;;;;;69.40;15.38;;;;;;;8.41;85.78;101239.81;5038618;28;20033;-58
2023/02/04 11:06:42;;;;;;;68.68;14.48;;;;;;;8.11;86.42;101241.53;5041092;28;20029;-58